Glasston, ND (58236)

7:40 PM CDT on May 29, 2015 (GMT -0500)
Cavalier | | Change Station
CLOSE
Current Station
Airport
Location: Cavalier,
Elevation: 892 ft
Nearby Weather Stations
Active Advisory: Frost Advisory

Elev 892 ft 48.78 °N, 97.63 °W | Updated 5 minutes ago

Clear
Clear
50 °F
Feels Like 50 °F
N
18
Wind Variable Wind from NNW
Gusts 29 mph

Today
High -- | Low -- °F
--% Chance of Precip.
Yesterday
High -- | Low -- °F
Precip. -- in
5:33 AM 9:21 PM
Waxing Gibbous, 87% visible
Pressure 30.26 in
Visibility 10.0 miles
Clouds Clear
Dew Point 32 °F
Humidity 50%
Rainfall 0.00 in
Snow Depth Not available.
UV 1 out of 12
Pollen 9.40 out of 12
Air Quality Not available.
Flu Activity Sporadic
METAR K2C8 300035Z AUTO 34016G25KT 10SM CLR 10/00 A3026 RMK AO2

More Conditions Fewer Conditions

Pressure 30.26 in
Visibility 10.0 miles
Clouds Clear
Dew Point 32 °F
Humidity 50%
Rainfall 0.00 in
Snow Depth Not available.
UV 1 out of 12
Pollen 9.40 out of 12
Air Quality Not available.
Flu Activity Sporadic
METAR K2C8 300035Z AUTO 34016G25KT 10SM CLR 10/00 A3026 RMK AO2

More Conditions Fewer Conditions

10-Day Weather Forecast

Almanac

Astronomy

May. 29, 2015 Rise Set
Actual Time
Civil Twilight
Nautical Twilight
Astronomical Twilight
Moon
Length of Visible Light
Length of Day
Tomorrow will be .
, % of the Moon is Illuminated

Today's Extremes

State Highs State Lows

Community

WunderPhotos

Upload Photos

1,825,411 photos uploaded!

WunderBlogs® & News

Nearby

Air Quality

  Air Quality AQ Index Pollutant
Not available.

Snow Depth

Station Depth Elevation

Earthquake Activity

City Distance Mag. Time & Date
Minimum magnitude displayed is 2.5.

Coastal Water Temperatures

Place Temperature

Stations

Nearby Weather Stations

Station Location Temp. Windchill Dew Point Humidity Wind Precip. Elev Updated Type
                   
Frost Advisory
Statement as of 3:18 PM CDT on May 29, 2015

... Frost advisory in effect from 3 am to 9 am CDT Saturday...

The National Weather Service in Grand Forks has issued a frost
advisory... which is in effect from 3 am to 9 am CDT Saturday.

* Temperatures... in the low to middle 30s.

* Timing... after midnight to sunrise.

Precautionary/preparedness actions...

A frost advisory means that widespread frost is expected.
Sensitive outdoor plants may be killed if left uncovered.